FLX455 SCCI-SCEL
Flight info
| Callsign | FLX455 |
|---|---|
| Flight time | 2h 33m |
| Altitude | 40000 |
| Route | SIRUN4A SIRUN UQ802 EROLO EROLO2D |
| Aircraft | A359/H-SDE2E3GHIJ3J4J5LM1ORWXY/LB1D1 |
Departure
| Time | 2026-04-26 11:20 |
|---|---|
| Airport | President Carlos Ibáñez International Airport (SCCI) |
Arrival
| Time | 2026-04-26 13:53 |
|---|---|
| Airport | Comodoro Arturo Merino Benítez International Airport (SCEL) |
| Time | Latitude | Longitude | Altitude | Speed | Heading |
|---|---|---|---|---|---|
| 2026-04-26 11:02 | -53.00447 | -70.84364 | 122 ft | 0 kts | 178° |
| 2026-04-26 11:07 | -53.00446 | -70.84364 | 122 ft | 1 kts | 178° |
| 2026-04-26 11:07 | -53.00423 | -70.84366 | 119 ft | 4 kts | 179° |
| 2026-04-26 11:07 | -53.00396 | -70.84365 | 119 ft | 4 kts | 177° |
| 2026-04-26 11:07 | -53.00382 | -70.84375 | 117 ft | 4 kts | 129° |
| 2026-04-26 11:08 | -53.00374 | -70.84411 | 117 ft | 4 kts | 80° |
| 2026-04-26 11:08 | -53.00381 | -70.84454 | 117 ft | 4 kts | 80° |
| 2026-04-26 11:08 | -53.00382 | -70.84473 | 117 ft | 1 kts | 87° |
| 2026-04-26 11:08 | -53.00382 | -70.84474 | 117 ft | 0 kts | 87° |
| 2026-04-26 11:14 | -53.00382 | -70.84468 | 122 ft | 3 kts | 87° |
| 2026-04-26 11:14 | -53.00371 | -70.84394 | 121 ft | 5 kts | 45° |
| 2026-04-26 11:14 | -53.00317 | -70.84376 | 119 ft | 12 kts | 4° |
| 2026-04-26 11:14 | -53.00264 | -70.84409 | 117 ft | 13 kts | 312° |
| 2026-04-26 11:15 | -53.00252 | -70.84645 | 119 ft | 21 kts | 270° |
| 2026-04-26 11:15 | -53.00254 | -70.84899 | 121 ft | 13 kts | 268° |
| 2026-04-26 11:15 | -53.00258 | -70.84972 | 121 ft | 5 kts | 252° |
| 2026-04-26 11:15 | -53.00308 | -70.85051 | 119 ft | 18 kts | 219° |
| 2026-04-26 11:16 | -53.00462 | -70.85200 | 117 ft | 32 kts | 207° |
| 2026-04-26 11:16 | -53.00650 | -70.85365 | 115 ft | 18 kts | 208° |
| 2026-04-26 11:16 | -53.00752 | -70.85412 | 114 ft | 17 kts | 161° |
| 2026-04-26 11:16 | -53.00865 | -70.85269 | 113 ft | 23 kts | 140° |
| 2026-04-26 11:17 | -53.00989 | -70.85091 | 117 ft | 26 kts | 139° |
| 2026-04-26 11:17 | -53.01136 | -70.84874 | 126 ft | 28 kts | 139° |
| 2026-04-26 11:17 | -53.01279 | -70.84664 | 137 ft | 25 kts | 138° |
| 2026-04-26 11:17 | -53.01312 | -70.84627 | 138 ft | 0 kts | 149° |
| 2026-04-26 11:18 | -53.01321 | -70.84619 | 139 ft | 9 kts | 152° |
| 2026-04-26 11:18 | -53.01348 | -70.84575 | 140 ft | 0 kts | 105° |
| 2026-04-26 11:18 | -53.01343 | -70.84567 | 140 ft | 3 kts | 52° |
| 2026-04-26 11:19 | -53.01324 | -70.84584 | 139 ft | 3 kts | 311° |
| 2026-04-26 11:19 | -53.01314 | -70.84605 | 139 ft | 0 kts | 314° |
| 2026-04-26 11:20 | -53.01220 | -70.84753 | 131 ft | 60 kts | 318° |
| 2026-04-26 11:20 | -53.00895 | -70.85222 | 114 ft | 125 kts | 319° |
| 2026-04-26 11:20 | -52.99772 | -70.86883 | 764 ft | 183 kts | 317° |
| 2026-04-26 11:20 | -52.98903 | -70.88603 | 1759 ft | 208 kts | 305° |
| 2026-04-26 11:21 | -52.97975 | -70.90607 | 2294 ft | 228 kts | 305° |
| 2026-04-26 11:21 | -52.96982 | -70.92710 | 3109 ft | 234 kts | 305° |
| 2026-04-26 11:21 | -52.95964 | -70.94841 | 4004 ft | 237 kts | 304° |
| 2026-04-26 11:21 | -52.94923 | -70.97018 | 4765 ft | 244 kts | 304° |
| 2026-04-26 11:22 | -52.93853 | -70.99246 | 5555 ft | 250 kts | 304° |
| 2026-04-26 11:22 | -52.92755 | -71.01529 | 6367 ft | 256 kts | 305° |
| 2026-04-26 11:22 | -52.91646 | -71.03825 | 7159 ft | 261 kts | 305° |
| 2026-04-26 11:22 | -52.90500 | -71.06186 | 8025 ft | 265 kts | 306° |
| 2026-04-26 11:23 | -52.89255 | -71.08474 | 8920 ft | 270 kts | 310° |
| 2026-04-26 11:23 | -52.87939 | -71.10715 | 9851 ft | 274 kts | 310° |
| 2026-04-26 11:23 | -52.86587 | -71.12996 | 10549 ft | 285 kts | 310° |
| 2026-04-26 11:23 | -52.85151 | -71.15430 | 10893 ft | 307 kts | 310° |
| 2026-04-26 11:24 | -52.83602 | -71.18055 | 11218 ft | 329 kts | 310° |
| 2026-04-26 11:24 | -52.81955 | -71.20837 | 11616 ft | 347 kts | 310° |
| 2026-04-26 11:24 | -52.80258 | -71.23692 | 12264 ft | 356 kts | 310° |
| 2026-04-26 11:24 | -52.78506 | -71.26635 | 12995 ft | 363 kts | 310° |
| 2026-04-26 11:25 | -52.76719 | -71.29636 | 13703 ft | 370 kts | 309° |
| 2026-04-26 11:25 | -52.74900 | -71.32689 | 14347 ft | 376 kts | 309° |
| 2026-04-26 11:25 | -52.73053 | -71.35783 | 15061 ft | 380 kts | 310° |
| 2026-04-26 11:25 | -52.71176 | -71.38878 | 15770 ft | 385 kts | 312° |
| 2026-04-26 11:26 | -52.69178 | -71.41856 | 16452 ft | 390 kts | 314° |
| 2026-04-26 11:26 | -52.67137 | -71.44833 | 17165 ft | 394 kts | 314° |
| 2026-04-26 11:26 | -52.65081 | -71.47849 | 17886 ft | 398 kts | 313° |
| 2026-04-26 11:26 | -52.63008 | -71.50906 | 18568 ft | 402 kts | 313° |
| 2026-04-26 11:27 | -52.60944 | -71.53958 | 19195 ft | 406 kts | 313° |
| 2026-04-26 11:27 | -52.58835 | -71.57080 | 19836 ft | 411 kts | 313° |
| 2026-04-26 11:27 | -52.56701 | -71.60238 | 20471 ft | 415 kts | 313° |
| 2026-04-26 11:27 | -52.54541 | -71.63433 | 21072 ft | 420 kts | 312° |
| 2026-04-26 11:28 | -52.52357 | -71.66662 | 21678 ft | 425 kts | 312° |
| 2026-04-26 11:28 | -52.50147 | -71.69924 | 22335 ft | 429 kts | 312° |
| 2026-04-26 11:28 | -52.47920 | -71.73207 | 22985 ft | 433 kts | 312° |
| 2026-04-26 11:28 | -52.45663 | -71.76531 | 23610 ft | 438 kts | 311° |
| 2026-04-26 11:29 | -52.43422 | -71.79825 | 24144 ft | 442 kts | 311° |
| 2026-04-26 11:29 | -52.41121 | -71.83202 | 24662 ft | 446 kts | 311° |
| 2026-04-26 11:29 | -52.38805 | -71.86595 | 25251 ft | 447 kts | 311° |
| 2026-04-26 11:29 | -52.36477 | -71.90001 | 25813 ft | 451 kts | 311° |
| 2026-04-26 11:30 | -52.34123 | -71.93443 | 26230 ft | 457 kts | 311° |
| 2026-04-26 11:30 | -52.32546 | -71.95747 | 26501 ft | 461 kts | 311° |
| 2026-04-26 11:30 | -52.29324 | -72.00446 | 27154 ft | 467 kts | 311° |
| 2026-04-26 11:30 | -52.26890 | -72.03987 | 27643 ft | 471 kts | 311° |
| 2026-04-26 11:31 | -52.24432 | -72.07556 | 28130 ft | 475 kts | 311° |
| 2026-04-26 11:31 | -52.21981 | -72.11111 | 28560 ft | 480 kts | 311° |
| 2026-04-26 11:31 | -52.19481 | -72.14742 | 29023 ft | 484 kts | 311° |
| 2026-04-26 11:31 | -52.16953 | -72.18405 | 29479 ft | 488 kts | 311° |
| 2026-04-26 11:32 | -52.14405 | -72.22087 | 29918 ft | 492 kts | 310° |
| 2026-04-26 11:32 | -52.11839 | -72.25785 | 30321 ft | 495 kts | 311° |
| 2026-04-26 11:32 | -52.09248 | -72.29513 | 30742 ft | 498 kts | 311° |
| 2026-04-26 11:32 | -52.06651 | -72.33241 | 31186 ft | 498 kts | 311° |
| 2026-04-26 11:33 | -52.04054 | -72.36962 | 31622 ft | 499 kts | 311° |
| 2026-04-26 11:33 | -52.01444 | -72.40697 | 32017 ft | 500 kts | 311° |
| 2026-04-26 11:33 | -51.98866 | -72.44383 | 32383 ft | 502 kts | 311° |
| 2026-04-26 11:33 | -51.96240 | -72.48133 | 32746 ft | 503 kts | 311° |
| 2026-04-26 11:34 | -51.93616 | -72.51871 | 33153 ft | 502 kts | 311° |
| 2026-04-26 11:34 | -51.90999 | -72.55590 | 33674 ft | 499 kts | 311° |
| 2026-04-26 11:34 | -51.88394 | -72.59286 | 34182 ft | 496 kts | 311° |
| 2026-04-26 11:34 | -51.85803 | -72.62956 | 34599 ft | 494 kts | 311° |
| 2026-04-26 11:35 | -51.83085 | -72.66403 | 34893 ft | 501 kts | 319° |
| 2026-04-26 11:35 | -51.80152 | -72.69479 | 35203 ft | 503 kts | 321° |
| 2026-04-26 11:35 | -51.77212 | -72.72399 | 35540 ft | 504 kts | 322° |
| 2026-04-26 11:35 | -51.75182 | -72.74363 | 35764 ft | 503 kts | 323° |
| 2026-04-26 11:36 | -51.71187 | -72.78173 | 36140 ft | 504 kts | 323° |
| 2026-04-26 11:36 | -51.68167 | -72.81037 | 36449 ft | 504 kts | 323° |
| 2026-04-26 11:36 | -51.65146 | -72.83903 | 36777 ft | 503 kts | 323° |
| 2026-04-26 11:36 | -51.62136 | -72.86763 | 37061 ft | 502 kts | 323° |
| 2026-04-26 11:37 | -51.59170 | -72.89583 | 37413 ft | 500 kts | 322° |
| 2026-04-26 11:37 | -51.56142 | -72.92462 | 37738 ft | 499 kts | 322° |
| 2026-04-26 11:37 | -51.53192 | -72.95268 | 37979 ft | 500 kts | 323° |
| 2026-04-26 11:37 | -51.50204 | -72.98107 | 38213 ft | 499 kts | 323° |
| 2026-04-26 11:38 | -51.47211 | -73.00945 | 38520 ft | 499 kts | 323° |
| 2026-04-26 11:38 | -51.44232 | -73.03768 | 38796 ft | 498 kts | 323° |
| 2026-04-26 11:38 | -51.41245 | -73.06592 | 39012 ft | 498 kts | 323° |
| 2026-04-26 11:38 | -51.38265 | -73.09405 | 39167 ft | 498 kts | 323° |
| 2026-04-26 11:39 | -51.35277 | -73.12219 | 39322 ft | 498 kts | 323° |
| 2026-04-26 11:39 | -51.32327 | -73.14994 | 39459 ft | 498 kts | 323° |
| 2026-04-26 11:39 | -51.29341 | -73.17799 | 39575 ft | 499 kts | 323° |
| 2026-04-26 11:39 | -51.26351 | -73.20608 | 39744 ft | 498 kts | 323° |
| 2026-04-26 11:40 | -51.23365 | -73.23408 | 39896 ft | 498 kts | 323° |
| 2026-04-26 11:40 | -51.20375 | -73.26200 | 40073 ft | 498 kts | 323° |
| 2026-04-26 11:40 | -51.17381 | -73.28991 | 40192 ft | 499 kts | 323° |
| 2026-04-26 11:40 | -51.14384 | -73.31781 | 40210 ft | 499 kts | 323° |
| 2026-04-26 11:42 | -50.90437 | -73.53930 | 40251 ft | 499 kts | 323° |
| 2026-04-26 11:43 | -50.84470 | -73.59409 | 40249 ft | 499 kts | 323° |
| 2026-04-26 11:43 | -50.78470 | -73.64903 | 40260 ft | 499 kts | 323° |
| 2026-04-26 11:44 | -50.72454 | -73.70394 | 40271 ft | 499 kts | 323° |
| 2026-04-26 11:44 | -50.66444 | -73.75863 | 40251 ft | 499 kts | 323° |
| 2026-04-26 11:45 | -50.60468 | -73.81284 | 40266 ft | 499 kts | 323° |
| 2026-04-26 11:45 | -50.54453 | -73.86723 | 40276 ft | 499 kts | 324° |
| 2026-04-26 11:46 | -50.48437 | -73.92150 | 40278 ft | 499 kts | 323° |
| 2026-04-26 11:46 | -50.42415 | -73.97545 | 40271 ft | 500 kts | 325° |
| 2026-04-26 11:47 | -50.35874 | -74.01369 | 40283 ft | 514 kts | 344° |
| 2026-04-26 11:47 | -50.32299 | -74.02011 | 40285 ft | 521 kts | 355° |
| 2026-04-26 11:47 | -50.28658 | -74.01850 | 40287 ft | 525 kts | 359° |
| 2026-04-26 11:48 | -50.21367 | -74.00915 | 40277 ft | 527 kts | 2° |
| 2026-04-26 11:48 | -50.14058 | -73.99814 | 40292 ft | 527 kts | 1° |
| 2026-04-26 11:49 | -50.06802 | -73.98787 | 40290 ft | 527 kts | 1° |
| 2026-04-26 11:49 | -49.99497 | -73.97811 | 40302 ft | 527 kts | 1° |
| 2026-04-26 11:50 | -49.92192 | -73.96852 | 40297 ft | 527 kts | 1° |
| 2026-04-26 11:50 | -49.84881 | -73.95898 | 40302 ft | 527 kts | 1° |
| 2026-04-26 11:51 | -49.77577 | -73.94942 | 40304 ft | 527 kts | 1° |
| 2026-04-26 11:51 | -49.70285 | -73.93989 | 40311 ft | 530 kts | 1° |
| 2026-04-26 11:52 | -49.64137 | -73.93190 | 40314 ft | 529 kts | 1° |
| 2026-04-26 11:52 | -49.55605 | -73.92077 | 40324 ft | 529 kts | 1° |
| 2026-04-26 11:53 | -49.48249 | -73.91133 | 40318 ft | 530 kts | 1° |
| 2026-04-26 11:54 | -49.37274 | -73.89727 | 40324 ft | 530 kts | 1° |
| 2026-04-26 11:54 | -49.29928 | -73.88782 | 40326 ft | 530 kts | 1° |
| 2026-04-26 11:55 | -49.22585 | -73.87850 | 40324 ft | 530 kts | 1° |
| 2026-04-26 11:55 | -49.15229 | -73.86910 | 40337 ft | 533 kts | 1° |
| 2026-04-26 11:56 | -49.07827 | -73.85971 | 40325 ft | 540 kts | 1° |
| 2026-04-26 11:56 | -49.00308 | -73.85016 | 40329 ft | 544 kts | 1° |
| 2026-04-26 11:57 | -48.92756 | -73.84058 | 40334 ft | 544 kts | 1° |
| 2026-04-26 11:57 | -48.85220 | -73.83107 | 40333 ft | 544 kts | 1° |
| 2026-04-26 11:58 | -48.77734 | -73.82167 | 40332 ft | 544 kts | 1° |
| 2026-04-26 11:58 | -48.70188 | -73.81225 | 40339 ft | 544 kts | 1° |
| 2026-04-26 11:59 | -48.62654 | -73.80285 | 40334 ft | 544 kts | 1° |
| 2026-04-26 11:59 | -48.55107 | -73.79347 | 40338 ft | 544 kts | 1° |
| 2026-04-26 12:00 | -48.47610 | -73.78414 | 40336 ft | 545 kts | 1° |
| 2026-04-26 12:00 | -48.40045 | -73.77479 | 40339 ft | 545 kts | 1° |
| 2026-04-26 12:01 | -48.32558 | -73.76550 | 40348 ft | 536 kts | 1° |
| 2026-04-26 12:01 | -48.25137 | -73.75637 | 40349 ft | 534 kts | 1° |
| 2026-04-26 12:02 | -48.17775 | -73.74742 | 40346 ft | 535 kts | 1° |
| 2026-04-26 12:02 | -48.10360 | -73.73842 | 40342 ft | 535 kts | 1° |
| 2026-04-26 12:03 | -48.02935 | -73.72941 | 40345 ft | 535 kts | 1° |
| 2026-04-26 12:03 | -47.95509 | -73.72041 | 40345 ft | 536 kts | 1° |
| 2026-04-26 12:04 | -47.88080 | -73.71145 | 40354 ft | 536 kts | 1° |
| 2026-04-26 12:04 | -47.80676 | -73.70254 | 40346 ft | 538 kts | 1° |
| 2026-04-26 12:05 | -47.73213 | -73.69357 | 40348 ft | 538 kts | 1° |
| 2026-04-26 12:05 | -47.65751 | -73.68464 | 40344 ft | 538 kts | 1° |
| 2026-04-26 12:06 | -47.58294 | -73.67573 | 40344 ft | 538 kts | 1° |
| 2026-04-26 12:06 | -47.50876 | -73.66688 | 40344 ft | 538 kts | 1° |
| 2026-04-26 12:07 | -47.43417 | -73.65799 | 40350 ft | 538 kts | 1° |
| 2026-04-26 12:07 | -47.35956 | -73.64911 | 40342 ft | 538 kts | 1° |
| 2026-04-26 12:08 | -47.28488 | -73.64035 | 40343 ft | 538 kts | 1° |
| 2026-04-26 12:08 | -47.21077 | -73.63167 | 40342 ft | 538 kts | 1° |
| 2026-04-26 12:09 | -47.13608 | -73.62289 | 40348 ft | 538 kts | 1° |
| 2026-04-26 12:09 | -47.06138 | -73.61414 | 40347 ft | 538 kts | 1° |
| 2026-04-26 12:10 | -46.98665 | -73.60548 | 40336 ft | 538 kts | 0° |
| 2026-04-26 12:10 | -46.91195 | -73.60083 | 40352 ft | 537 kts | 357° |
| 2026-04-26 12:11 | -46.83775 | -73.59849 | 40365 ft | 537 kts | 357° |
| 2026-04-26 12:11 | -46.76296 | -73.59568 | 40360 ft | 538 kts | 358° |
| 2026-04-26 12:12 | -46.68821 | -73.59233 | 40357 ft | 538 kts | 358° |
| 2026-04-26 12:12 | -46.61384 | -73.58881 | 40342 ft | 539 kts | 358° |
| 2026-04-26 12:13 | -46.53885 | -73.58524 | 40363 ft | 539 kts | 358° |
| 2026-04-26 12:13 | -46.46385 | -73.58177 | 40354 ft | 541 kts | 358° |
| 2026-04-26 12:14 | -46.40138 | -73.57889 | 40329 ft | 540 kts | 358° |
| 2026-04-26 12:14 | -46.32632 | -73.57543 | 40372 ft | 540 kts | 358° |
| 2026-04-26 12:15 | -46.23905 | -73.57139 | 40370 ft | 539 kts | 358° |
| 2026-04-26 12:15 | -46.17672 | -73.56848 | 40352 ft | 539 kts | 358° |
| 2026-04-26 12:16 | -46.10161 | -73.56501 | 40369 ft | 540 kts | 358° |
| 2026-04-26 12:16 | -46.02651 | -73.56159 | 40367 ft | 540 kts | 358° |
| 2026-04-26 12:17 | -45.93929 | -73.55762 | 40370 ft | 541 kts | 358° |
| 2026-04-26 12:17 | -45.87620 | -73.55476 | 40366 ft | 541 kts | 358° |
| 2026-04-26 12:18 | -45.80136 | -73.55134 | 40366 ft | 541 kts | 358° |
| 2026-04-26 12:18 | -45.72610 | -73.54792 | 40365 ft | 541 kts | 358° |
| 2026-04-26 12:19 | -45.65079 | -73.54452 | 40363 ft | 542 kts | 358° |
| 2026-04-26 12:19 | -45.57545 | -73.54111 | 40369 ft | 542 kts | 358° |
| 2026-04-26 12:20 | -45.50067 | -73.53775 | 40363 ft | 542 kts | 358° |
| 2026-04-26 12:20 | -45.42533 | -73.53437 | 40363 ft | 541 kts | 358° |
| 2026-04-26 12:21 | -45.35003 | -73.53100 | 40381 ft | 542 kts | 358° |
| 2026-04-26 12:21 | -45.27460 | -73.52764 | 40364 ft | 542 kts | 358° |
| 2026-04-26 12:22 | -45.19960 | -73.52431 | 40365 ft | 543 kts | 358° |
| 2026-04-26 12:22 | -45.12403 | -73.52034 | 40362 ft | 544 kts | 0° |
| 2026-04-26 12:23 | -45.04862 | -73.51076 | 40361 ft | 545 kts | 3° |
| 2026-04-26 12:23 | -44.97313 | -73.49982 | 40362 ft | 545 kts | 2° |
| 2026-04-26 12:24 | -44.89756 | -73.48970 | 40362 ft | 545 kts | 2° |
| 2026-04-26 12:24 | -44.82247 | -73.48025 | 40366 ft | 545 kts | 2° |
| 2026-04-26 12:25 | -44.70917 | -73.46627 | 40361 ft | 546 kts | 2° |
| 2026-04-26 12:25 | -44.63346 | -73.45692 | 40365 ft | 546 kts | 2° |
| 2026-04-26 12:26 | -44.55781 | -73.44758 | 40353 ft | 546 kts | 2° |
| 2026-04-26 12:26 | -44.48257 | -73.43831 | 40366 ft | 546 kts | 2° |
| 2026-04-26 12:27 | -44.40696 | -73.42902 | 40362 ft | 546 kts | 2° |
| 2026-04-26 12:27 | -44.33131 | -73.41975 | 40357 ft | 546 kts | 2° |
| 2026-04-26 12:28 | -44.25622 | -73.41057 | 40363 ft | 545 kts | 2° |
| 2026-04-26 12:28 | -44.18061 | -73.40137 | 40365 ft | 546 kts | 2° |
| 2026-04-26 12:29 | -44.10495 | -73.39217 | 40363 ft | 546 kts | 2° |
| 2026-04-26 12:30 | -43.99146 | -73.37841 | 40363 ft | 546 kts | 2° |
| 2026-04-26 12:30 | -43.91626 | -73.36933 | 40362 ft | 546 kts | 2° |
| 2026-04-26 12:31 | -43.80275 | -73.35566 | 40360 ft | 546 kts | 2° |
| 2026-04-26 12:31 | -43.72711 | -73.34658 | 40365 ft | 546 kts | 2° |
| 2026-04-26 12:32 | -43.65152 | -73.33753 | 40365 ft | 546 kts | 2° |
| 2026-04-26 12:33 | -43.53855 | -73.32405 | 40365 ft | 546 kts | 2° |
| 2026-04-26 12:33 | -43.46284 | -73.31504 | 40366 ft | 546 kts | 2° |
| 2026-04-26 12:34 | -43.38725 | -73.30607 | 40365 ft | 546 kts | 2° |
| 2026-04-26 12:34 | -43.31205 | -73.29718 | 40372 ft | 546 kts | 2° |
| 2026-04-26 12:35 | -43.23632 | -73.28824 | 40365 ft | 547 kts | 2° |
| 2026-04-26 12:35 | -43.16051 | -73.27930 | 40364 ft | 547 kts | 2° |
| 2026-04-26 12:36 | -43.08483 | -73.27076 | 40365 ft | 547 kts | 2° |
| 2026-04-26 12:36 | -43.00899 | -73.26288 | 40368 ft | 546 kts | 1° |
| 2026-04-26 12:37 | -42.93364 | -73.25509 | 40368 ft | 546 kts | 1° |
| 2026-04-26 12:37 | -42.85788 | -73.24716 | 40368 ft | 546 kts | 1° |
| 2026-04-26 12:38 | -42.78203 | -73.23920 | 40353 ft | 546 kts | 1° |
| 2026-04-26 12:38 | -42.70625 | -73.23124 | 40375 ft | 546 kts | 1° |
| 2026-04-26 12:39 | -42.63102 | -73.22337 | 40371 ft | 546 kts | 1° |
| 2026-04-26 12:39 | -42.55533 | -73.21547 | 40366 ft | 546 kts | 1° |
| 2026-04-26 12:40 | -42.47960 | -73.20760 | 40367 ft | 546 kts | 1° |
| 2026-04-26 12:40 | -42.40387 | -73.19975 | 40366 ft | 546 kts | 1° |
| 2026-04-26 12:41 | -42.32863 | -73.19145 | 40368 ft | 546 kts | 2° |
| 2026-04-26 12:41 | -42.25290 | -73.18280 | 40371 ft | 546 kts | 2° |
| 2026-04-26 12:42 | -42.17716 | -73.17425 | 40366 ft | 546 kts | 2° |
| 2026-04-26 12:42 | -42.10146 | -73.16581 | 40373 ft | 546 kts | 2° |
| 2026-04-26 12:43 | -42.02582 | -73.15743 | 40371 ft | 546 kts | 2° |
| 2026-04-26 12:43 | -41.95062 | -73.14911 | 40374 ft | 546 kts | 2° |
| 2026-04-26 12:44 | -41.87492 | -73.14076 | 40372 ft | 546 kts | 2° |
| 2026-04-26 12:44 | -41.79926 | -73.13243 | 40372 ft | 546 kts | 2° |
| 2026-04-26 12:45 | -41.72363 | -73.12412 | 40367 ft | 545 kts | 2° |
| 2026-04-26 12:45 | -41.64803 | -73.11583 | 40366 ft | 545 kts | 2° |
| 2026-04-26 12:46 | -41.57305 | -73.10763 | 40360 ft | 544 kts | 2° |
| 2026-04-26 12:46 | -41.49756 | -73.09940 | 40357 ft | 544 kts | 2° |
| 2026-04-26 12:47 | -41.42211 | -73.09119 | 40375 ft | 544 kts | 2° |
| 2026-04-26 12:47 | -41.34687 | -73.07890 | 40354 ft | 545 kts | 6° |
| 2026-04-26 12:48 | -41.27245 | -73.06357 | 40365 ft | 545 kts | 6° |
| 2026-04-26 12:48 | -41.19739 | -73.04857 | 40367 ft | 545 kts | 6° |
| 2026-04-26 12:49 | -41.12242 | -73.03432 | 40352 ft | 545 kts | 6° |
| 2026-04-26 12:49 | -41.04730 | -73.02046 | 40357 ft | 544 kts | 5° |
| 2026-04-26 12:50 | -40.97281 | -73.00680 | 40356 ft | 544 kts | 5° |
| 2026-04-26 12:50 | -40.89772 | -72.99302 | 40353 ft | 544 kts | 5° |
| 2026-04-26 12:51 | -40.82272 | -72.97927 | 40362 ft | 544 kts | 5° |
| 2026-04-26 12:51 | -40.74770 | -72.96556 | 40372 ft | 544 kts | 5° |
| 2026-04-26 12:52 | -40.67268 | -72.95187 | 40370 ft | 544 kts | 5° |
| 2026-04-26 12:52 | -40.59815 | -72.93831 | 40377 ft | 545 kts | 5° |
| 2026-04-26 12:53 | -40.52887 | -72.92573 | 40373 ft | 545 kts | 5° |
| 2026-04-26 12:53 | -40.45378 | -72.91213 | 40367 ft | 545 kts | 5° |
| 2026-04-26 12:54 | -40.37880 | -72.89857 | 40372 ft | 544 kts | 5° |
| 2026-04-26 12:54 | -40.30375 | -72.88523 | 40371 ft | 544 kts | 5° |
| 2026-04-26 12:55 | -40.22923 | -72.87306 | 40371 ft | 543 kts | 4° |
| 2026-04-26 12:55 | -40.15421 | -72.86105 | 40373 ft | 543 kts | 4° |
| 2026-04-26 12:56 | -40.07921 | -72.84894 | 40374 ft | 543 kts | 4° |
| 2026-04-26 12:56 | -40.00425 | -72.83676 | 40372 ft | 543 kts | 4° |
| 2026-04-26 12:57 | -39.92975 | -72.82467 | 40371 ft | 543 kts | 4° |
| 2026-04-26 12:57 | -39.85477 | -72.81252 | 40367 ft | 542 kts | 4° |
| 2026-04-26 12:58 | -39.74242 | -72.79439 | 40361 ft | 543 kts | 4° |
| 2026-04-26 12:58 | -39.66799 | -72.78213 | 40362 ft | 543 kts | 5° |
| 2026-04-26 12:59 | -39.59322 | -72.76835 | 40360 ft | 543 kts | 6° |
| 2026-04-26 12:59 | -39.51848 | -72.75439 | 40368 ft | 542 kts | 6° |
| 2026-04-26 13:00 | -39.44387 | -72.74071 | 40376 ft | 542 kts | 5° |
| 2026-04-26 13:00 | -39.36920 | -72.72724 | 40374 ft | 542 kts | 5° |
| 2026-04-26 13:01 | -39.29457 | -72.71377 | 40370 ft | 542 kts | 6° |
| 2026-04-26 13:01 | -39.22044 | -72.70033 | 40366 ft | 542 kts | 5° |
| 2026-04-26 13:02 | -39.14578 | -72.68683 | 40346 ft | 541 kts | 5° |
| 2026-04-26 13:02 | -39.07139 | -72.67344 | 40355 ft | 540 kts | 5° |
| 2026-04-26 13:03 | -38.99697 | -72.66008 | 40344 ft | 540 kts | 5° |
| 2026-04-26 13:03 | -38.92304 | -72.64685 | 40346 ft | 540 kts | 5° |
| 2026-04-26 13:04 | -38.84909 | -72.63088 | 40348 ft | 540 kts | 10° |
| 2026-04-26 13:04 | -38.77590 | -72.60864 | 40353 ft | 540 kts | 12° |
| 2026-04-26 13:05 | -38.70287 | -72.58620 | 40346 ft | 540 kts | 11° |
| 2026-04-26 13:05 | -38.63007 | -72.56492 | 40379 ft | 539 kts | 10° |
| 2026-04-26 13:06 | -38.55683 | -72.54408 | 40373 ft | 539 kts | 10° |
| 2026-04-26 13:06 | -38.48360 | -72.52342 | 40351 ft | 539 kts | 10° |
| 2026-04-26 13:07 | -38.41035 | -72.50280 | 40362 ft | 539 kts | 10° |
| 2026-04-26 13:07 | -38.33719 | -72.48215 | 40362 ft | 538 kts | 10° |
| 2026-04-26 13:08 | -38.26456 | -72.46169 | 40362 ft | 538 kts | 10° |
| 2026-04-26 13:08 | -38.19156 | -72.44116 | 40359 ft | 536 kts | 10° |
| 2026-04-26 13:09 | -38.11870 | -72.42078 | 40359 ft | 535 kts | 9° |
| 2026-04-26 13:09 | -38.04593 | -72.40048 | 40355 ft | 535 kts | 9° |
| 2026-04-26 13:10 | -37.97366 | -72.38034 | 40348 ft | 535 kts | 9° |
| 2026-04-26 13:10 | -37.90108 | -72.36016 | 40350 ft | 533 kts | 9° |
| 2026-04-26 13:11 | -37.82861 | -72.34004 | 40346 ft | 533 kts | 9° |
| 2026-04-26 13:11 | -37.75621 | -72.31999 | 40342 ft | 533 kts | 9° |
| 2026-04-26 13:12 | -37.68427 | -72.30010 | 40345 ft | 533 kts | 9° |
| 2026-04-26 13:12 | -37.61180 | -72.27991 | 40346 ft | 533 kts | 10° |
| 2026-04-26 13:13 | -37.53975 | -72.25785 | 40347 ft | 533 kts | 11° |
| 2026-04-26 13:13 | -37.46769 | -72.23531 | 40348 ft | 534 kts | 11° |
| 2026-04-26 13:14 | -37.39586 | -72.21320 | 40346 ft | 534 kts | 10° |
| 2026-04-26 13:14 | -37.32360 | -72.19122 | 40345 ft | 534 kts | 10° |
| 2026-04-26 13:15 | -37.25134 | -72.16932 | 40332 ft | 533 kts | 10° |
| 2026-04-26 13:15 | -37.17939 | -72.14755 | 40336 ft | 532 kts | 10° |
| 2026-04-26 13:16 | -37.10743 | -72.12583 | 40332 ft | 532 kts | 10° |
| 2026-04-26 13:16 | -37.03603 | -72.10431 | 40307 ft | 531 kts | 9° |
| 2026-04-26 13:17 | -36.92839 | -72.07194 | 40314 ft | 529 kts | 9° |
| 2026-04-26 13:18 | -36.82098 | -72.03974 | 40328 ft | 529 kts | 9° |
| 2026-04-26 13:19 | -36.71421 | -72.00781 | 40313 ft | 528 kts | 9° |
| 2026-04-26 13:19 | -36.64275 | -71.98650 | 40317 ft | 528 kts | 9° |
| 2026-04-26 13:20 | -36.57132 | -71.96523 | 40300 ft | 528 kts | 9° |
| 2026-04-26 13:20 | -36.50041 | -71.94416 | 40299 ft | 527 kts | 9° |
| 2026-04-26 13:21 | -36.42903 | -71.92299 | 40292 ft | 527 kts | 9° |
| 2026-04-26 13:21 | -36.35762 | -71.90185 | 40301 ft | 527 kts | 8° |
| 2026-04-26 13:22 | -36.28618 | -71.88074 | 40284 ft | 528 kts | 8° |
| 2026-04-26 13:22 | -36.21522 | -71.85982 | 40292 ft | 527 kts | 8° |
| 2026-04-26 13:23 | -36.14382 | -71.83880 | 40279 ft | 527 kts | 8° |
| 2026-04-26 13:23 | -36.07250 | -71.81785 | 40278 ft | 527 kts | 8° |
| 2026-04-26 13:24 | -36.00109 | -71.79690 | 40281 ft | 526 kts | 8° |
| 2026-04-26 13:24 | -35.92990 | -71.77607 | 40282 ft | 526 kts | 8° |
| 2026-04-26 13:25 | -35.85915 | -71.75540 | 40282 ft | 526 kts | 8° |
| 2026-04-26 13:25 | -35.78787 | -71.73461 | 40273 ft | 526 kts | 8° |
| 2026-04-26 13:26 | -35.71668 | -71.71389 | 40280 ft | 526 kts | 8° |
| 2026-04-26 13:26 | -35.64554 | -71.69322 | 40273 ft | 526 kts | 8° |
| 2026-04-26 13:27 | -35.57436 | -71.67258 | 40276 ft | 526 kts | 8° |
| 2026-04-26 13:27 | -35.50371 | -71.65213 | 40275 ft | 525 kts | 8° |
| 2026-04-26 13:28 | -35.43270 | -71.63157 | 40279 ft | 524 kts | 8° |
| 2026-04-26 13:28 | -35.36165 | -71.61108 | 40273 ft | 524 kts | 8° |
| 2026-04-26 13:29 | -35.29070 | -71.59064 | 40261 ft | 524 kts | 8° |
| 2026-04-26 13:29 | -35.22026 | -71.57037 | 40274 ft | 523 kts | 7° |
| 2026-04-26 13:30 | -35.14957 | -71.55009 | 40268 ft | 522 kts | 7° |
| 2026-04-26 13:30 | -35.07880 | -71.52980 | 40210 ft | 521 kts | 7° |
| 2026-04-26 13:30 | -35.04341 | -71.51966 | 39985 ft | 522 kts | 7° |
| 2026-04-26 13:31 | -35.00807 | -71.50956 | 39749 ft | 523 kts | 7° |
| 2026-04-26 13:31 | -34.97271 | -71.49946 | 39520 ft | 523 kts | 7° |
| 2026-04-26 13:31 | -34.93772 | -71.48947 | 39288 ft | 523 kts | 7° |
| 2026-04-26 13:31 | -34.90223 | -71.47935 | 39056 ft | 524 kts | 8° |
| 2026-04-26 13:32 | -34.86681 | -71.46925 | 38703 ft | 521 kts | 8° |
| 2026-04-26 13:32 | -34.83161 | -71.45922 | 38094 ft | 519 kts | 8° |
| 2026-04-26 13:32 | -34.79649 | -71.44922 | 37390 ft | 517 kts | 8° |
| 2026-04-26 13:32 | -34.76151 | -71.43928 | 36745 ft | 516 kts | 8° |
| 2026-04-26 13:33 | -34.72655 | -71.42936 | 36095 ft | 515 kts | 8° |
| 2026-04-26 13:33 | -34.69163 | -71.41946 | 35383 ft | 515 kts | 8° |
| 2026-04-26 13:33 | -34.65680 | -71.40911 | 34616 ft | 518 kts | 12° |
| 2026-04-26 13:33 | -34.62308 | -71.39463 | 33742 ft | 524 kts | 18° |
| 2026-04-26 13:34 | -34.58915 | -71.37798 | 32861 ft | 526 kts | 19° |
| 2026-04-26 13:34 | -34.55531 | -71.36115 | 32006 ft | 527 kts | 19° |
| 2026-04-26 13:34 | -34.52130 | -71.34428 | 31127 ft | 528 kts | 19° |
| 2026-04-26 13:34 | -34.49873 | -71.33313 | 30527 ft | 529 kts | 19° |
| 2026-04-26 13:35 | -34.45320 | -71.31068 | 29463 ft | 526 kts | 19° |
| 2026-04-26 13:35 | -34.41951 | -71.29410 | 28860 ft | 520 kts | 19° |
| 2026-04-26 13:35 | -34.38611 | -71.27769 | 28227 ft | 515 kts | 19° |
| 2026-04-26 13:35 | -34.35312 | -71.26148 | 27595 ft | 510 kts | 19° |
| 2026-04-26 13:36 | -34.32074 | -71.24562 | 26997 ft | 506 kts | 19° |
| 2026-04-26 13:36 | -34.28829 | -71.22975 | 26385 ft | 502 kts | 19° |
| 2026-04-26 13:36 | -34.25596 | -71.21395 | 25768 ft | 498 kts | 19° |
| 2026-04-26 13:36 | -34.22398 | -71.19830 | 25171 ft | 495 kts | 19° |
| 2026-04-26 13:37 | -34.19211 | -71.18275 | 24552 ft | 492 kts | 19° |
| 2026-04-26 13:37 | -34.16050 | -71.16733 | 23954 ft | 489 kts | 19° |
| 2026-04-26 13:37 | -34.12904 | -71.15197 | 23284 ft | 486 kts | 19° |
| 2026-04-26 13:37 | -34.09779 | -71.13676 | 22673 ft | 481 kts | 19° |
| 2026-04-26 13:38 | -34.06688 | -71.12174 | 22045 ft | 477 kts | 19° |
| 2026-04-26 13:38 | -34.03666 | -71.10706 | 21473 ft | 473 kts | 20° |
| 2026-04-26 13:38 | -34.00623 | -71.09225 | 20841 ft | 470 kts | 20° |
| 2026-04-26 13:38 | -33.97602 | -71.07754 | 20245 ft | 466 kts | 20° |
| 2026-04-26 13:39 | -33.94608 | -71.06304 | 19615 ft | 463 kts | 20° |
| 2026-04-26 13:39 | -33.91635 | -71.04864 | 19021 ft | 460 kts | 20° |
| 2026-04-26 13:39 | -33.88673 | -71.03433 | 18388 ft | 457 kts | 20° |
| 2026-04-26 13:39 | -33.85734 | -71.02020 | 17748 ft | 454 kts | 20° |
| 2026-04-26 13:40 | -33.82848 | -71.00634 | 17104 ft | 449 kts | 20° |
| 2026-04-26 13:40 | -33.79975 | -70.99244 | 16508 ft | 443 kts | 20° |
| 2026-04-26 13:40 | -33.77131 | -70.97865 | 15923 ft | 438 kts | 21° |
| 2026-04-26 13:40 | -33.74320 | -70.96501 | 15310 ft | 433 kts | 21° |
| 2026-04-26 13:41 | -33.71547 | -70.95158 | 14723 ft | 427 kts | 21° |
| 2026-04-26 13:41 | -33.68807 | -70.93835 | 14140 ft | 422 kts | 21° |
| 2026-04-26 13:41 | -33.66097 | -70.92529 | 13522 ft | 418 kts | 22° |
| 2026-04-26 13:41 | -33.63419 | -70.91240 | 12915 ft | 411 kts | 22° |
| 2026-04-26 13:42 | -33.60778 | -70.89969 | 12340 ft | 406 kts | 22° |
| 2026-04-26 13:42 | -33.58183 | -70.88720 | 11771 ft | 400 kts | 22° |
| 2026-04-26 13:42 | -33.55695 | -70.87277 | 11171 ft | 394 kts | 30° |
| 2026-04-26 13:42 | -33.53406 | -70.85630 | 10904 ft | 380 kts | 32° |
| 2026-04-26 13:43 | -33.51217 | -70.84010 | 10800 ft | 361 kts | 33° |
| 2026-04-26 13:43 | -33.49159 | -70.82490 | 10688 ft | 332 kts | 33° |
| 2026-04-26 13:43 | -33.47272 | -70.81100 | 10565 ft | 308 kts | 33° |
| 2026-04-26 13:43 | -33.45461 | -70.79818 | 10413 ft | 298 kts | 28° |
| 2026-04-26 13:44 | -33.43520 | -70.79129 | 10267 ft | 290 kts | 4° |
| 2026-04-26 13:44 | -33.41551 | -70.79465 | 10155 ft | 296 kts | 339° |
| 2026-04-26 13:44 | -33.39849 | -70.80821 | 9908 ft | 301 kts | 311° |
| 2026-04-26 13:44 | -33.38397 | -70.82631 | 9567 ft | 303 kts | 318° |
| 2026-04-26 13:45 | -33.36731 | -70.84161 | 9140 ft | 302 kts | 324° |
| 2026-04-26 13:45 | -33.35005 | -70.85579 | 8719 ft | 300 kts | 325° |
| 2026-04-26 13:45 | -33.33291 | -70.86969 | 8365 ft | 295 kts | 325° |
| 2026-04-26 13:45 | -33.31626 | -70.88310 | 8110 ft | 279 kts | 325° |
| 2026-04-26 13:46 | -33.30067 | -70.89561 | 7873 ft | 261 kts | 325° |
| 2026-04-26 13:46 | -33.28598 | -70.90742 | 7648 ft | 252 kts | 325° |
| 2026-04-26 13:46 | -33.27159 | -70.91899 | 7413 ft | 246 kts | 325° |
| 2026-04-26 13:46 | -33.25690 | -70.92865 | 7270 ft | 236 kts | 338° |
| 2026-04-26 13:47 | -33.24139 | -70.93249 | 7166 ft | 222 kts | 358° |
| 2026-04-26 13:47 | -33.22673 | -70.93006 | 6955 ft | 213 kts | 18° |
| 2026-04-26 13:47 | -33.21371 | -70.92213 | 6663 ft | 210 kts | 37° |
| 2026-04-26 13:47 | -33.20364 | -70.90976 | 6314 ft | 208 kts | 56° |
| 2026-04-26 13:48 | -33.19747 | -70.89442 | 5997 ft | 204 kts | 75° |
| 2026-04-26 13:48 | -33.19553 | -70.87771 | 5557 ft | 205 kts | 93° |
| 2026-04-26 13:48 | -33.19812 | -70.86114 | 5218 ft | 201 kts | 111° |
| 2026-04-26 13:48 | -33.20432 | -70.84652 | 4976 ft | 194 kts | 124° |
| 2026-04-26 13:49 | -33.21263 | -70.83433 | 4747 ft | 186 kts | 135° |
| 2026-04-26 13:49 | -33.22222 | -70.82475 | 4532 ft | 179 kts | 146° |
| 2026-04-26 13:49 | -33.23287 | -70.81759 | 4309 ft | 173 kts | 156° |
| 2026-04-26 13:49 | -33.24415 | -70.81290 | 4076 ft | 171 kts | 166° |
| 2026-04-26 13:50 | -33.25575 | -70.81064 | 3855 ft | 167 kts | 175° |
| 2026-04-26 13:50 | -33.26729 | -70.80967 | 3621 ft | 166 kts | 176° |
| 2026-04-26 13:50 | -33.27860 | -70.80889 | 3423 ft | 159 kts | 176° |
| 2026-04-26 13:50 | -33.28928 | -70.80812 | 3201 ft | 147 kts | 176° |
| 2026-04-26 13:51 | -33.29918 | -70.80744 | 3022 ft | 140 kts | 178° |
| 2026-04-26 13:51 | -33.30876 | -70.80698 | 2848 ft | 140 kts | 178° |
| 2026-04-26 13:51 | -33.31847 | -70.80650 | 2647 ft | 141 kts | 177° |
| 2026-04-26 13:51 | -33.32826 | -70.80601 | 2481 ft | 141 kts | 177° |
| 2026-04-26 13:52 | -33.33803 | -70.80551 | 2284 ft | 141 kts | 177° |
| 2026-04-26 13:52 | -33.34781 | -70.80500 | 2103 ft | 141 kts | 177° |
| 2026-04-26 13:52 | -33.35761 | -70.80448 | 1884 ft | 141 kts | 177° |
| 2026-04-26 13:52 | -33.36748 | -70.80389 | 1698 ft | 142 kts | 176° |
| 2026-04-26 13:53 | -33.37731 | -70.80333 | 1579 ft | 137 kts | 178° |
| 2026-04-26 13:53 | -33.38562 | -70.80298 | 1580 ft | 102 kts | 177° |
| 2026-04-26 13:53 | -33.39153 | -70.80267 | 1579 ft | 68 kts | 177° |
| 2026-04-26 13:53 | -33.39502 | -70.80249 | 1577 ft | 32 kts | 177° |
| 2026-04-26 13:54 | -33.39653 | -70.80241 | 1578 ft | 22 kts | 177° |
| 2026-04-26 13:54 | -33.39816 | -70.80230 | 1579 ft | 23 kts | 173° |
| 2026-04-26 13:54 | -33.39961 | -70.80165 | 1578 ft | 22 kts | 149° |
| 2026-04-26 13:55 | -33.40110 | -70.80041 | 1574 ft | 0 kts | 143° |
| 2026-04-26 13:55 | -33.40113 | -70.80037 | 1574 ft | 2 kts | 143° |
| 2026-04-26 13:55 | -33.40165 | -70.79922 | 1572 ft | 5 kts | 92° |
| 2026-04-26 13:56 | -33.40163 | -70.79864 | 1571 ft | 10 kts | 87° |
| 2026-04-26 13:56 | -33.40160 | -70.79790 | 1571 ft | 6 kts | 86° |
| 2026-04-26 13:56 | -33.40143 | -70.79758 | 1571 ft | 4 kts | 34° |
| 2026-04-26 13:56 | -33.40114 | -70.79752 | 1571 ft | 4 kts | 2° |
| 2026-04-26 13:57 | -33.40082 | -70.79752 | 1571 ft | 4 kts | 358° |
| 2026-04-26 13:57 | -33.40074 | -70.79753 | 1571 ft | 0 kts | 358° |